Time;durP1;ratioP1;P1;durP2;ratioP2;P2;SDS_P1;SDS_P2;PMS_P1;PMS_P2;Temp;Humidity;BMP_temperature;BMP_pressure;BME280_temperature;BME280_humidity;BME280_pressure;Samples;Min_cycle;Max_cycle;Signal;HPM_P1;HPM_P2
2023/01/11 00:00:14;;;;;;;;;;;;;;;3.90;68.21;94017.19;4156230;28;19929;-72
2023/01/11 00:02:16;;;;;;;;;;;;;;;3.84;68.57;94020.31;4178436;28;20074;-72
2023/01/11 00:04:18;;;;;;;;;;;;;;;3.89;68.75;94014.72;4178566;28;19960;-72
2023/01/11 00:06:19;;;;;;;;;;;;;;;3.86;68.72;94009.81;4160835;28;19932;-73
2023/01/11 00:08:23;;;;;;;;;;;;;;;3.87;69.32;94014.03;4179207;28;20295;-71
2023/01/11 00:10:24;;;;;;;;;;;;;;;3.96;69.02;94015.00;4178331;28;20368;-72
2023/01/11 00:12:27;;;;;;;;;;;;;;;4.07;67.61;94014.88;4179020;28;20388;-70
2023/01/11 00:14:28;;;;;;;;;;;;;;;4.18;66.74;94014.72;4178653;28;19925;-72
2023/01/11 00:16:30;;;;;;;;;;;;;;;4.27;66.99;94013.09;4150485;28;20005;-72
2023/01/11 00:18:32;;;;;;;;;;;;;;;4.36;66.30;94014.03;4178914;28;19924;-70
2023/01/11 00:20:33;;;;;;;;;;;;;;;4.38;66.04;94018.13;4178579;28;20407;-73
2023/01/11 00:22:35;;;;;;;;;;;;;;;4.44;66.24;94016.75;4179572;28;19940;-72
2023/01/11 00:24:37;;;;;;;;;;;;;;;4.47;66.35;94022.50;4165181;28;19925;-72
2023/01/11 00:26:38;;;;;;;;;;;;;;;4.47;66.22;94017.31;4179222;28;20391;-71
2023/01/11 00:28:40;;;;;;;;;;;;;;;4.40;65.62;94020.59;4176825;28;19921;-74
2023/01/11 00:30:42;;;;;;;;;;;;;;;4.38;66.36;94028.50;4179528;28;20057;-72
2023/01/11 00:32:43;;;;;;;;;;;;;;;4.09;68.83;94034.53;4173543;28;19921;-70
2023/01/11 00:34:45;;;;;;;;;;;;;;;3.95;70.75;94031.50;4177807;28;19925;-71
2023/01/11 00:36:46;;;;;;;;;;;;;;;3.94;71.92;94038.47;4177092;28;19925;-72
2023/01/11 00:38:52;;;;;;;;;;;;;;;3.89;72.11;94033.69;4173109;28;19920;-73
2023/01/11 00:40:54;;;;;;;;;;;;;;;3.90;72.12;94035.31;4175310;28;19996;-71
2023/01/11 00:49:56;;;;;;;;;;;;;;;3.66;74.03;94040.88;4169801;28;19933;-71
2023/01/11 00:51:58;;;;;;;;;;;;;;;3.81;73.80;94030.94;4170915;28;19975;-73
2023/01/11 00:53:59;;;;;;;;;;;;;;;3.93;73.30;94033.41;4162953;28;20148;-72
2023/01/11 00:56:01;;;;;;;;;;;;;;;3.98;72.90;94046.78;4167144;28;20034;-73
2023/01/11 00:58:02;;;;;;;;;;;;;;;4.04;72.61;94047.06;4178892;28;19920;-70
2023/01/11 01:00:04;;;;;;;;;;;;;;;4.09;72.55;94042.28;4167616;28;19931;-72
2023/01/11 01:02:07;;;;;;;;;;;;;;;4.16;71.98;94049.53;4149611;28;20016;-72
2023/01/11 01:04:09;;;;;;;;;;;;;;;4.17;72.70;94040.78;4168054;28;20091;-72
2023/01/11 01:06:10;;;;;;;;;;;;;;;4.16;72.08;94039.16;4178054;28;19928;-72
2023/01/11 01:08:12;;;;;;;;;;;;;;;4.15;72.21;94040.94;4168460;28;19925;-71
2023/01/11 01:10:14;;;;;;;;;;;;;;;4.18;72.88;94043.25;4163114;28;19939;-72
2023/01/11 01:14:36;;;;;;;;;;;;;;;4.13;72.06;94034.22;4163080;28;20331;-72
2023/01/11 01:16:38;;;;;;;;;;;;;;;4.15;72.62;94042.69;4162802;28;19925;-71
2023/01/11 01:18:39;;;;;;;;;;;;;;;4.17;72.32;94045.97;4163022;28;19972;-72
2023/01/11 01:20:41;;;;;;;;;;;;;;;4.15;72.63;94042.69;4171490;28;19996;-69
2023/01/11 01:22:42;;;;;;;;;;;;;;;4.16;72.64;94039.16;4177296;28;20385;-72
2023/01/11 01:24:44;;;;;;;;;;;;;;;4.13;72.76;94049.78;4162382;28;20024;-71
2023/01/11 01:26:45;;;;;;;;;;;;;;;4.11;72.99;94057.72;4162968;28;20024;-73
2023/01/11 01:28:47;;;;;;;;;;;;;;;4.10;72.84;94061.25;4155173;28;19983;-72
2023/01/11 01:30:50;;;;;;;;;;;;;;;4.08;72.75;94056.19;4165848;28;19921;-72
2023/01/11 01:32:53;;;;;;;;;;;;;;;4.15;73.36;94058.25;4165598;28;20023;-71
2023/01/11 01:34:54;;;;;;;;;;;;;;;4.15;72.39;94053.06;4177664;28;19955;-71
2023/01/11 01:36:56;;;;;;;;;;;;;;;4.13;73.14;94055.81;4176443;28;19951;-74
2023/01/11 01:38:58;;;;;;;;;;;;;;;4.09;73.20;94059.63;4177450;28;19928;-74
2023/01/11 01:41:00;;;;;;;;;;;;;;;4.01;72.63;94060.28;4177945;28;19928;-72
2023/01/11 01:43:01;;;;;;;;;;;;;;;4.03;72.74;94060.16;4175404;28;19983;-71
2023/01/11 01:45:05;;;;;;;;;;;;;;;4.05;73.20;94060.84;4143556;28;19922;-72
2023/01/11 01:47:07;;;;;;;;;;;;;;;4.11;72.60;94068.09;4159939;28;19964;-71
2023/01/11 01:49:10;;;;;;;;;;;;;;;4.15;73.16;94066.03;4159990;28;20332;-69
2023/01/11 01:51:12;;;;;;;;;;;;;;;4.02;72.32;94061.94;4174161;28;19921;-71
2023/01/11 01:53:25;;;;;;;;;;;;;;;4.01;73.35;94073.25;4168010;28;19920;-72
2023/01/11 01:55:27;;;;;;;;;;;;;;;3.95;72.76;94067.78;4148004;28;19945;-73
2023/01/11 01:57:30;;;;;;;;;;;;;;;4.00;73.21;94070.78;4127249;28;19925;-72
2023/01/11 01:59:31;;;;;;;;;;;;;;;4.03;72.92;94065.34;4162699;28;20345;-72
2023/01/11 02:01:48;;;;;;;;;;;;;;;4.06;73.13;94067.66;4168250;28;19959;-72
2023/01/11 02:03:50;;;;;;;;;;;;;;;4.06;73.05;94071.06;4158879;28;19967;-71
2023/01/11 02:05:52;;;;;;;;;;;;;;;4.08;72.99;94066.56;4161473;28;19927;-71
2023/01/11 02:07:55;;;;;;;;;;;;;;;4.10;72.37;94069.84;4158858;28;20392;-71
2023/01/11 02:10:06;;;;;;;;;;;;;;;4.06;72.37;94071.06;4160611;28;19925;-71
2023/01/11 02:12:08;;;;;;;;;;;;;;;4.06;72.73;94075.44;4164399;28;19925;-71
2023/01/11 02:14:11;;;;;;;;;;;;;;;4.07;72.77;94080.50;4175947;28;19920;-72
2023/01/11 02:16:13;;;;;;;;;;;;;;;4.02;72.28;94087.88;4177580;28;19925;-70
2023/01/11 02:18:14;;;;;;;;;;;;;;;4.03;73.06;94091.25;4164580;28;20178;-72
2023/01/11 02:20:16;;;;;;;;;;;;;;;4.03;73.25;94092.06;4154650;28;19933;-71
2023/01/11 02:22:35;;;;;;;;;;;;;;;4.01;72.66;94095.75;4168264;28;19968;-72
2023/01/11 02:24:37;;;;;;;;;;;;;;;4.04;73.14;94106.69;4163130;28;19971;-71
2023/01/11 02:26:44;;;;;;;;;;;;;;;4.08;72.94;94112.41;4164698;28;19966;-72
2023/01/11 02:28:59;;;;;;;;;;;;;;;4.14;72.94;94119.66;4170826;28;20387;-72
2023/01/11 02:31:13;;;;;;;;;;;;;;;4.21;73.06;94118.16;4175185;28;19921;-73
2023/01/11 02:33:17;;;;;;;;;;;;;;;4.19;72.77;94122.66;4165349;28;20378;-72
2023/01/11 02:35:25;;;;;;;;;;;;;;;4.17;72.50;94124.56;4171347;28;19921;-72
2023/01/11 02:37:45;;;;;;;;;;;;;;;4.15;72.55;94133.44;4164981;28;19975;-73
2023/01/11 02:39:46;;;;;;;;;;;;;;;4.12;71.95;94131.09;4173100;28;20391;-75
2023/01/11 02:46:55;;;;;;;;;;;;;;;3.93;72.42;94142.25;4161341;28;19929;-72
2023/01/11 02:49:15;;;;;;;;;;;;;;;3.86;73.69;94136.78;4175528;28;19921;-72
2023/01/11 02:51:25;;;;;;;;;;;;;;;3.86;73.53;94142.78;4166212;28;20364;-73
2023/01/11 02:53:30;;;;;;;;;;;;;;;3.84;73.52;94144.69;4158651;28;19948;-72
2023/01/11 02:55:32;;;;;;;;;;;;;;;3.73;73.46;94144.78;4158368;28;20031;-72
2023/01/11 02:57:38;;;;;;;;;;;;;;;3.79;73.96;94151.22;4176893;28;20285;-72
2023/01/11 02:59:39;;;;;;;;;;;;;;;3.71;73.55;94143.28;4159213;28;19924;-73
2023/01/11 03:01:43;;;;;;;;;;;;;;;3.69;73.43;94148.59;4158162;28;20311;-72
2023/01/11 03:03:45;;;;;;;;;;;;;;;3.72;73.98;94145.72;4173824;28;19932;-72
2023/01/11 03:05:49;;;;;;;;;;;;;;;3.71;73.98;94151.06;4168094;28;19921;-73
2023/01/11 03:07:58;;;;;;;;;;;;;;;3.71;73.54;94149.28;4159207;28;20368;-72
2023/01/11 03:10:16;;;;;;;;;;;;;;;3.76;73.96;94159.25;4148670;28;20044;-73
2023/01/11 03:12:50;;;;;;;;;;;;;;;3.78;73.56;94154.75;4158748;28;19925;-71
2023/01/11 03:14:58;;;;;;;;;;;;;;;3.82;73.31;94159.53;4163813;28;19936;-74
2023/01/11 03:17:04;;;;;;;;;;;;;;;3.81;73.68;94151.91;4175855;28;19920;-71
2023/01/11 03:19:23;;;;;;;;;;;;;;;3.81;73.67;94144.94;4142549;28;19922;-71
2023/01/11 03:21:28;;;;;;;;;;;;;;;3.85;73.71;94151.50;4158370;28;19921;-73
2023/01/11 03:23:41;;;;;;;;;;;;;;;3.89;73.52;94152.03;4176852;28;19931;-73
2023/01/11 03:26:02;;;;;;;;;;;;;;;3.93;72.80;94153.44;4158386;28;20379;-73
2023/01/11 03:28:07;;;;;;;;;;;;;;;3.91;73.32;94150.16;4158447;28;19936;-72
2023/01/11 03:30:12;;;;;;;;;;;;;;;3.98;73.28;94151.28;4175999;28;19920;-72
2023/01/11 03:32:25;;;;;;;;;;;;;;;4.04;73.22;94142.97;4175735;28;19936;-72
2023/01/11 03:34:35;;;;;;;;;;;;;;;4.08;72.49;94143.50;4158057;28;20342;-71
2023/01/11 03:36:39;;;;;;;;;;;;;;;4.04;71.84;94142.97;4175876;28;20350;-72
2023/01/11 03:38:48;;;;;;;;;;;;;;;4.06;72.59;94148.81;4158958;28;19925;-74
2023/01/11 03:40:52;;;;;;;;;;;;;;;4.01;72.42;94151.00;4158398;28;20237;-72
2023/01/11 03:43:11;;;;;;;;;;;;;;;4.03;72.47;94153.47;4158994;28;19967;-72
2023/01/11 03:45:12;;;;;;;;;;;;;;;4.06;72.02;94150.59;4160183;28;20147;-72
2023/01/11 03:47:14;;;;;;;;;;;;;;;4.06;71.95;94151.41;4158294;28;19925;-71
2023/01/11 03:49:20;;;;;;;;;;;;;;;4.01;71.76;94150.19;4157927;28;20242;-73
2023/01/11 03:53:45;;;;;;;;;;;;;;;4.02;71.84;94157.84;4159114;28;19929;-72
2023/01/11 03:55:48;;;;;;;;;;;;;;;4.07;72.06;94158.25;4171776;28;19935;-72
2023/01/11 03:57:50;;;;;;;;;;;;;;;4.12;71.74;94160.44;4151910;28;19921;-71
2023/01/11 03:59:52;;;;;;;;;;;;;;;4.15;72.18;94151.56;4147749;28;19921;-72
2023/01/11 04:01:54;;;;;;;;;;;;;;;4.15;71.70;94161.94;4173921;28;20256;-71
2023/01/11 04:03:56;;;;;;;;;;;;;;;4.17;72.10;94158.25;4153080;28;20422;-73
2023/01/11 04:05:58;;;;;;;;;;;;;;;4.13;71.63;94169.03;4155612;28;19925;-72
2023/01/11 04:08:00;;;;;;;;;;;;;;;4.10;71.40;94168.34;4156728;28;19932;-72
2023/01/11 04:10:02;;;;;;;;;;;;;;;4.07;71.61;94173.00;4157206;28;20164;-71
2023/01/11 04:12:03;;;;;;;;;;;;;;;4.11;71.64;94174.38;4170633;28;19929;-71
2023/01/11 04:14:05;;;;;;;;;;;;;;;4.04;71.37;94168.06;4170670;28;20113;-70
2023/01/11 04:16:07;;;;;;;;;;;;;;;4.02;72.01;94173.38;4164933;28;19983;-71
2023/01/11 04:18:08;;;;;;;;;;;;;;;4.02;71.83;94178.56;4175718;28;19986;-72
2023/01/11 04:20:11;;;;;;;;;;;;;;;4.04;72.02;94171.50;4169664;28;19932;-72
2023/01/11 04:22:12;;;;;;;;;;;;;;;4.03;71.82;94180.19;4160714;28;19948;-73
2023/01/11 04:24:14;;;;;;;;;;;;;;;3.94;72.32;94186.19;4173953;28;19924;-72
2023/01/11 04:26:16;;;;;;;;;;;;;;;3.96;72.27;94181.69;4175399;28;19920;-73
2023/01/11 04:28:17;;;;;;;;;;;;;;;3.92;72.53;94182.91;4171576;28;19921;-72
2023/01/11 04:30:19;;;;;;;;;;;;;;;3.98;72.21;94184.97;4172363;28;20143;-75
2023/01/11 04:32:21;;;;;;;;;;;;;;;4.00;72.75;94196.03;4164176;28;19921;-72
2023/01/11 04:34:23;;;;;;;;;;;;;;;4.03;71.97;94193.16;4166827;28;20406;-71
2023/01/11 04:36:25;;;;;;;;;;;;;;;4.02;72.32;94196.72;4178156;28;19927;-72
2023/01/11 04:38:26;;;;;;;;;;;;;;;4.04;72.25;94204.34;4178753;28;19920;-72
2023/01/11 04:40:28;;;;;;;;;;;;;;;4.09;72.01;94205.59;4178108;28;20024;-71
2023/01/11 04:42:30;;;;;;;;;;;;;;;4.12;71.77;94203.69;4179418;28;19970;-71
2023/01/11 04:44:31;;;;;;;;;;;;;;;4.07;71.44;94201.50;4178820;28;20213;-72
2023/01/11 04:46:33;;;;;;;;;;;;;;;4.08;71.61;94209.13;4178689;28;19921;-71
2023/01/11 04:48:35;;;;;;;;;;;;;;;4.13;71.56;94211.34;4178621;28;19982;-72
2023/01/11 04:50:36;;;;;;;;;;;;;;;4.15;71.28;94212.03;4178666;28;19920;-73
2023/01/11 04:52:40;;;;;;;;;;;;;;;4.21;71.18;94208.06;4177988;28;20007;-73
2023/01/11 04:54:42;;;;;;;;;;;;;;;4.22;70.56;94207.97;4177864;28;19920;-72
2023/01/11 04:56:43;;;;;;;;;;;;;;;4.15;71.01;94212.03;4176880;28;20295;-71
2023/01/11 04:58:45;;;;;;;;;;;;;;;4.20;71.22;94224.59;4179090;28;20340;-72
2023/01/11 05:00:47;;;;;;;;;;;;;;;4.21;70.51;94221.03;4178530;28;20011;-72
2023/01/11 05:02:48;;;;;;;;;;;;;;;4.24;70.71;94223.38;4177279;28;20063;-74
2023/01/11 05:04:50;;;;;;;;;;;;;;;4.20;70.75;94220.22;4153417;28;20383;-74
2023/01/11 05:06:51;;;;;;;;;;;;;;;4.18;70.59;94223.91;4148918;28;19931;-72
2023/01/11 05:08:53;;;;;;;;;;;;;;;4.19;70.52;94225.53;4177530;28;19921;-70
2023/01/11 05:10:55;;;;;;;;;;;;;;;4.16;70.50;94234.41;4178060;28;20111;-72
2023/01/11 05:12:57;;;;;;;;;;;;;;;4.17;70.87;94230.84;4159995;28;19925;-72
2023/01/11 05:14:58;;;;;;;;;;;;;;;4.12;70.69;94240.00;4160848;28;20280;-73
2023/01/11 05:17:00;;;;;;;;;;;;;;;4.17;70.49;94237.81;4178284;28;19931;-73
2023/01/11 05:19:02;;;;;;;;;;;;;;;4.17;70.36;94240.41;4177365;28;20487;-72
2023/01/11 05:21:05;;;;;;;;;;;;;;;4.18;70.46;94247.25;4177665;28;20342;-71
2023/01/11 05:23:06;;;;;;;;;;;;;;;4.17;70.54;94253.38;4177806;28;19920;-72
2023/01/11 05:25:08;;;;;;;;;;;;;;;4.15;70.35;94242.31;4177790;28;20136;-73
2023/01/11 05:27:10;;;;;;;;;;;;;;;4.11;70.64;94249.53;4160188;28;20368;-73
2023/01/11 05:29:13;;;;;;;;;;;;;;;4.02;70.15;94251.16;4177817;28;19921;-71
2023/01/11 05:31:14;;;;;;;;;;;;;;;3.98;70.91;94248.91;4178543;28;20351;-74
2023/01/11 05:33:16;;;;;;;;;;;;;;;3.89;70.74;94250.53;4160131;28;19921;-73
2023/01/11 05:35:18;;;;;;;;;;;;;;;3.98;71.56;94249.75;4177265;28;19975;-72
2023/01/11 05:37:19;;;;;;;;;;;;;;;4.00;70.97;94245.28;4177123;28;19990;-71
2023/01/11 05:39:22;;;;;;;;;;;;;;;3.95;71.26;94249.19;4177815;28;19927;-73
2023/01/11 05:41:25;;;;;;;;;;;;;;;3.89;71.49;94246.19;4178083;28;19920;-72
2023/01/11 05:43:27;;;;;;;;;;;;;;;3.94;71.85;94253.56;4176982;28;20023;-74
2023/01/11 05:45:30;;;;;;;;;;;;;;;3.89;71.91;94251.38;4144457;28;19925;-72
2023/01/11 05:47:32;;;;;;;;;;;;;;;3.91;71.81;94261.56;4177536;28;19920;-74
2023/01/11 05:49:33;;;;;;;;;;;;;;;3.87;71.13;94258.44;4177504;28;20222;-74
2023/01/11 05:51:36;;;;;;;;;;;;;;;3.90;70.89;94262.53;4174203;28;19967;-72
2023/01/11 05:53:38;;;;;;;;;;;;;;;3.95;71.30;94262.16;4177449;28;19928;-71
2023/01/11 05:55:50;;;;;;;;;;;;;;;4.03;70.90;94265.72;4159890;28;20348;-74
2023/01/11 05:57:51;;;;;;;;;;;;;;;4.07;71.35;94269.72;4177451;28;20020;-72
2023/01/11 05:59:53;;;;;;;;;;;;;;;4.10;71.05;94273.81;4177693;28;19939;-74
2023/01/11 06:01:54;;;;;;;;;;;;;;;4.14;70.41;94275.19;4177012;28;19982;-73
2023/01/11 06:03:56;;;;;;;;;;;;;;;4.14;70.02;94264.00;4172196;28;19987;-71
2023/01/11 06:05:58;;;;;;;;;;;;;;;4.16;70.37;94272.47;4173617;28;19979;-71
2023/01/11 06:08:00;;;;;;;;;;;;;;;4.15;69.93;94269.06;4171432;28;19986;-73
2023/01/11 06:10:02;;;;;;;;;;;;;;;4.17;70.06;94274.91;4159204;28;19924;-73
2023/01/11 06:12:03;;;;;;;;;;;;;;;4.18;69.79;94281.75;4159547;28;20024;-73
2023/01/11 06:14:05;;;;;;;;;;;;;;;4.21;70.53;94286.66;4173248;28;19925;-73
2023/01/11 06:16:08;;;;;;;;;;;;;;;4.28;69.78;94286.97;4173504;28;19921;-73
2023/01/11 06:18:10;;;;;;;;;;;;;;;4.23;69.71;94289.97;4177201;28;19924;-72
2023/01/11 06:20:12;;;;;;;;;;;;;;;4.25;70.03;94297.63;4174443;28;20356;-73
2023/01/11 06:22:13;;;;;;;;;;;;;;;4.23;70.13;94291.72;4171691;28;19927;-74
2023/01/11 06:24:15;;;;;;;;;;;;;;;4.25;69.51;94306.22;4173678;28;20394;-74
2023/01/11 06:26:18;;;;;;;;;;;;;;;4.27;69.05;94306.91;4177485;28;19974;-73
2023/01/11 06:28:19;;;;;;;;;;;;;;;4.34;69.03;94308.97;4176915;28;19924;-74
2023/01/11 06:30:24;;;;;;;;;;;;;;;4.35;69.11;94314.03;4172324;28;19928;-72
2023/01/11 06:32:27;;;;;;;;;;;;;;;4.31;68.73;94320.44;4175071;28;20356;-73
2023/01/11 06:34:29;;;;;;;;;;;;;;;4.38;69.34;94315.53;4176754;28;19976;-73
2023/01/11 06:36:30;;;;;;;;;;;;;;;4.35;68.27;94314.03;4174373;28;20395;-72
2023/01/11 06:38:32;;;;;;;;;;;;;;;4.43;68.50;94315.97;4163558;28;19921;-74
2023/01/11 06:40:34;;;;;;;;;;;;;;;4.47;68.74;94318.19;4142527;28;19984;-74
2023/01/11 06:42:36;;;;;;;;;;;;;;;4.49;68.49;94329.22;4152506;28;19929;-74
2023/01/11 06:44:37;;;;;;;;;;;;;;;4.55;68.34;94319.28;4170428;28;19921;-74
2023/01/11 06:46:39;;;;;;;;;;;;;;;4.60;67.64;94319.72;4174564;28;19982;-72
2023/01/11 06:48:41;;;;;;;;;;;;;;;4.66;67.93;94322.59;4173727;28;19924;-73
2023/01/11 06:50:45;;;;;;;;;;;;;;;4.72;67.70;94323.84;4176647;28;20009;-71
2023/01/11 06:52:57;;;;;;;;;;;;;;;4.62;67.74;94325.59;4167877;28;19959;-71
2023/01/11 06:54:59;;;;;;;;;;;;;;;4.55;68.02;94327.88;4176619;28;20299;-74
2023/01/11 06:57:00;;;;;;;;;;;;;;;4.59;67.61;94333.66;4175851;28;19920;-73
2023/01/11 06:59:02;;;;;;;;;;;;;;;4.62;67.90;94334.19;4176656;28;20003;-73
2023/01/11 07:01:04;;;;;;;;;;;;;;;4.61;67.91;94334.34;4176536;28;19927;-74
2023/01/11 07:03:06;;;;;;;;;;;;;;;4.68;67.98;94338.84;4176181;28;19921;-73
2023/01/11 07:05:08;;;;;;;;;;;;;;;4.71;67.81;94340.34;4168106;28;20415;-73
2023/01/11 07:07:10;;;;;;;;;;;;;;;4.77;67.89;94346.81;4169303;28;19975;-73
2023/01/11 07:09:11;;;;;;;;;;;;;;;4.79;67.65;94348.31;4161627;28;20007;-75
2023/01/11 07:11:13;;;;;;;;;;;;;;;4.83;67.67;94346.28;4162821;28;20247;-73
2023/01/11 07:13:16;;;;;;;;;;;;;;;4.84;67.27;94361.72;4176556;28;19920;-73
2023/01/11 07:15:17;;;;;;;;;;;;;;;4.82;66.72;94358.44;4152260;28;19921;-73
2023/01/11 07:17:19;;;;;;;;;;;;;;;4.84;67.19;94355.69;4161942;28;19929;-74
2023/01/11 07:19:21;;;;;;;;;;;;;;;4.77;67.03;94365.78;4174057;28;19943;-72
2023/01/11 07:21:22;;;;;;;;;;;;;;;4.69;66.92;94368.25;4146848;28;19979;-72
2023/01/11 07:23:24;;;;;;;;;;;;;;;4.63;66.75;94368.75;4176031;28;19956;-72
2023/01/11 07:25:26;;;;;;;;;;;;;;;4.42;67.20;94374.81;4157834;28;19971;-73
2023/01/11 07:27:28;;;;;;;;;;;;;;;4.16;67.69;94379.59;4164185;28;20023;-74
2023/01/11 07:29:29;;;;;;;;;;;;;;;4.18;68.89;94371.69;4175966;28;19925;-72
2023/01/11 07:31:31;;;;;;;;;;;;;;;4.29;68.91;94376.78;4152637;28;19925;-75
2023/01/11 07:33:33;;;;;;;;;;;;;;;4.32;67.91;94381.69;4160620;28;20210;-74
2023/01/11 07:35:35;;;;;;;;;;;;;;;4.08;68.69;94382.00;4160964;28;19925;-75
2023/01/11 07:37:37;;;;;;;;;;;;;;;4.13;69.06;94382.44;4169738;28;19925;-73
2023/01/11 07:39:38;;;;;;;;;;;;;;;4.25;69.60;94383.19;4168789;28;19925;-74
2023/01/11 07:44:04;;;;;;;;;;;;;;;4.51;68.23;94386.97;4165436;28;19982;-74
2023/01/11 07:46:05;;;;;;;;;;;;;;;4.61;67.51;94384.44;4176215;28;20499;-72
2023/01/11 07:48:09;;;;;;;;;;;;;;;4.73;67.71;94387.75;4149661;28;19992;-73
2023/01/11 07:50:10;;;;;;;;;;;;;;;4.81;67.07;94385.31;4176582;28;19920;-71
2023/01/11 07:52:12;;;;;;;;;;;;;;;4.86;66.32;94400.50;4159881;28;19932;-73
2023/01/11 07:54:14;;;;;;;;;;;;;;;4.86;66.12;94401.34;4176381;28;19920;-73
2023/01/11 07:56:15;;;;;;;;;;;;;;;4.93;65.88;94405.03;4175633;28;19993;-74
2023/01/11 07:58:17;;;;;;;;;;;;;;;4.89;65.99;94403.66;4175347;28;19925;-76
2023/01/11 08:00:19;;;;;;;;;;;;;;;4.84;64.96;94410.19;4172495;28;19921;-73
2023/01/11 08:02:20;;;;;;;;;;;;;;;4.87;65.68;94413.34;4172459;28;19921;-72
2023/01/11 08:04:22;;;;;;;;;;;;;;;4.69;65.28;94414.94;4164881;28;20283;-74
2023/01/11 08:06:23;;;;;;;;;;;;;;;3.86;68.24;94421.81;4165126;28;20261;-73
2023/01/11 08:08:25;;;;;;;;;;;;;;;3.51;69.74;94420.31;4173569;28;19924;-74
2023/01/11 08:10:27;;;;;;;;;;;;;;;3.69;69.89;94425.78;4171805;28;19925;-74
2023/01/11 08:14:51;;;;;;;;;;;;;;;4.06;68.08;94441.72;4167918;28;19920;-72
2023/01/11 08:16:53;;;;;;;;;;;;;;;4.19;67.89;94438.94;4153498;28;19925;-72
2023/01/11 08:18:54;;;;;;;;;;;;;;;4.20;67.01;94437.19;4169230;28;19925;-73
2023/01/11 08:20:56;;;;;;;;;;;;;;;4.33;67.55;94435.22;4178611;28;19979;-73
2023/01/11 08:23:00;;;;;;;;;;;;;;;4.44;67.02;94444.72;4178126;28;19920;-73
2023/01/11 08:25:02;;;;;;;;;;;;;;;4.47;67.28;94445.28;4178862;28;19925;-73
2023/01/11 08:27:04;;;;;;;;;;;;;;;4.55;67.40;94449.00;4178688;28;20122;-73
2023/01/11 08:29:05;;;;;;;;;;;;;;;4.55;67.52;94456.78;4178490;28;19920;-74
2023/01/11 08:31:07;;;;;;;;;;;;;;;4.53;67.15;94466.47;4179311;28;20386;-73
2023/01/11 08:33:09;;;;;;;;;;;;;;;4.71;67.09;94475.28;4178097;28;20382;-73
2023/01/11 08:35:11;;;;;;;;;;;;;;;4.85;66.71;94477.56;4178416;28;20285;-75
2023/01/11 08:37:13;;;;;;;;;;;;;;;4.90;66.80;94469.38;4173306;28;19924;-72
2023/01/11 08:39:14;;;;;;;;;;;;;;;5.00;66.71;94467.66;4167223;28;19952;-73
2023/01/11 08:41:16;;;;;;;;;;;;;;;5.04;66.52;94471.63;4160938;28;19956;-73
2023/01/11 08:43:17;;;;;;;;;;;;;;;4.87;65.75;94475.66;4179427;28;20338;-72
2023/01/11 08:45:19;;;;;;;;;;;;;;;4.64;66.46;94477.56;4176335;28;20458;-74
2023/01/11 08:47:21;;;;;;;;;;;;;;;4.64;67.10;94474.16;4177170;28;19921;-72
2023/01/11 08:49:23;;;;;;;;;;;;;;;4.80;67.60;94482.31;4160090;28;19948;-73
2023/01/11 08:51:25;;;;;;;;;;;;;;;4.96;66.89;94486.22;4177633;28;19978;-74
2023/01/11 08:53:26;;;;;;;;;;;;;;;4.93;65.77;94479.50;4177126;28;20120;-73
2023/01/11 08:55:29;;;;;;;;;;;;;;;4.99;65.74;94485.94;4177939;28;19921;-72
2023/01/11 08:57:31;;;;;;;;;;;;;;;4.96;65.81;94481.03;4178786;28;19943;-72
2023/01/11 08:59:32;;;;;;;;;;;;;;;5.01;65.83;94487.47;4161105;28;20005;-72
2023/01/11 09:01:34;;;;;;;;;;;;;;;5.07;65.10;94502.50;4177479;28;19975;-73
2023/01/11 09:03:36;;;;;;;;;;;;;;;5.07;64.97;94496.50;4172266;28;20000;-75
2023/01/11 09:05:38;;;;;;;;;;;;;;;5.11;64.76;94497.88;4178443;28;19937;-70
2023/01/11 09:07:39;;;;;;;;;;;;;;;5.19;64.14;94492.06;4173787;28;19980;-72
2023/01/11 09:09:41;;;;;;;;;;;;;;;5.18;63.98;94495.59;4174563;28;19964;-75
2023/01/11 09:11:59;;;;;;;;;;;;;;;5.19;64.38;94492.06;4165414;28;19924;-71
2023/01/11 09:14:01;;;;;;;;;;;;;;;5.24;64.35;94495.88;4176566;28;20272;-74
2023/01/11 09:16:02;;;;;;;;;;;;;;;5.24;64.54;94503.66;4160208;28;19975;-73
2023/01/11 09:18:04;;;;;;;;;;;;;;;5.25;64.31;94500.13;4178135;28;20253;-74
2023/01/11 09:20:06;;;;;;;;;;;;;;;5.32;64.04;94505.63;4177915;28;20094;-71
2023/01/11 09:22:07;;;;;;;;;;;;;;;5.41;64.20;94491.03;4177190;28;20135;-74
2023/01/11 09:24:09;;;;;;;;;;;;;;;5.46;63.83;94488.84;4176312;28;20045;-73
2023/01/11 09:26:11;;;;;;;;;;;;;;;5.59;63.43;94492.00;4164724;28;19920;-73
2023/01/11 09:28:12;;;;;;;;;;;;;;;5.69;63.45;94492.84;4178354;28;19925;-71
2023/01/11 09:30:17;;;;;;;;;;;;;;;5.69;63.21;94492.03;4178455;28;19928;-73
2023/01/11 09:32:19;;;;;;;;;;;;;;;5.75;63.16;94496.69;4176160;28;19924;-71
2023/01/11 09:34:20;;;;;;;;;;;;;;;5.79;63.00;94502.47;4178036;28;19928;-73
2023/01/11 09:36:25;;;;;;;;;;;;;;;5.73;63.23;94502.03;4177596;28;19974;-74
2023/01/11 09:38:29;;;;;;;;;;;;;;;5.66;63.77;94495.72;4178149;28;19955;-72
2023/01/11 09:40:34;;;;;;;;;;;;;;;5.67;62.99;94497.34;4164037;28;19920;-72
2023/01/11 09:42:38;;;;;;;;;;;;;;;5.60;63.42;94501.47;4160149;28;19921;-71
2023/01/11 09:45:01;;;;;;;;;;;;;;;5.64;63.30;94494.22;4154115;28;19959;-71
2023/01/11 09:47:24;;;;;;;;;;;;;;;5.26;63.69;94501.75;4160813;28;19972;-72
2023/01/11 09:49:27;;;;;;;;;;;;;;;4.65;65.17;94501.78;4127157;28;19927;-72
2023/01/11 09:51:32;;;;;;;;;;;;;;;4.30;65.24;94503.72;4177334;28;19960;-72
2023/01/11 09:53:36;;;;;;;;;;;;;;;4.37;66.54;94504.06;4155463;28;20341;-72
2023/01/11 09:55:45;;;;;;;;;;;;;;;4.67;66.05;94499.88;4177511;28;20295;-73
2023/01/11 09:57:50;;;;;;;;;;;;;;;4.76;64.90;94498.28;4143509;28;20020;-71
2023/01/11 10:00:11;;;;;;;;;;;;;;;4.93;64.14;94502.88;4174268;28;20356;-71
2023/01/11 10:02:38;;;;;;;;;;;;;;;4.48;65.54;94503.16;4175021;28;19932;-73
2023/01/11 10:05:09;;;;;;;;;;;;;;;4.60;65.20;94503.91;4172238;28;20047;-73
2023/01/11 10:07:21;;;;;;;;;;;;;;;4.65;65.29;94501.78;4166213;28;19947;-72
2023/01/11 10:09:33;;;;;;;;;;;;;;;4.58;65.51;94508.41;4150704;28;19932;-72
2023/01/11 10:12:15;;;;;;;;;;;;;;;3.99;66.65;94500.22;4159454;28;19966;-73
2023/01/11 10:14:40;;;;;;;;;;;;;;;4.19;67.63;94506.34;4175713;28;20332;-73
2023/01/11 10:17:06;;;;;;;;;;;;;;;4.38;66.90;94510.06;4174018;28;20268;-72
2023/01/11 10:19:31;;;;;;;;;;;;;;;4.35;66.94;94511.13;4160394;28;20079;-74
2023/01/11 10:21:45;;;;;;;;;;;;;;;4.60;66.61;94503.91;4160718;28;20001;-75
2023/01/11 10:24:13;;;;;;;;;;;;;;;4.51;65.67;94503.72;4173301;28;19920;-73
2023/01/11 10:26:23;;;;;;;;;;;;;;;4.29;64.12;94503.84;4135523;28;19928;-73
2023/01/11 10:28:34;;;;;;;;;;;;;;;4.06;66.19;94509.13;4177358;28;19924;-72
2023/01/11 10:33:13;;;;;;;;;;;;;;;4.51;65.67;94498.53;4159763;28;19967;-74
2023/01/11 10:35:36;;;;;;;;;;;;;;;4.21;66.11;94499.28;4161764;28;19956;-72
2023/01/11 10:38:09;;;;;;;;;;;;;;;4.12;66.05;94500.03;4165256;28;20359;-72
2023/01/11 10:40:30;;;;;;;;;;;;;;;4.09;66.76;94501.13;4173206;28;20225;-73
2023/01/11 10:42:32;;;;;;;;;;;;;;;4.08;66.65;94498.63;4177458;28;20252;-72
2023/01/11 10:44:47;;;;;;;;;;;;;;;4.38;65.98;94495.31;4159317;28;19928;-73
2023/01/11 10:46:50;;;;;;;;;;;;;;;4.71;65.23;94491.69;4158514;28;20047;-73
2023/01/11 10:49:27;;;;;;;;;;;;;;;5.03;64.74;94495.13;4159100;28;19933;-73
2023/01/11 10:51:30;;;;;;;;;;;;;;;5.34;64.04;94494.13;4107494;28;19925;-73
2023/01/11 10:53:37;;;;;;;;;;;;;;;5.53;62.49;94490.78;4145257;28;19920;-74
2023/01/11 10:55:48;;;;;;;;;;;;;;;5.23;62.12;94493.44;4166668;28;19951;-72
2023/01/11 10:58:00;;;;;;;;;;;;;;;4.90;62.30;94497.91;4165277;28;20063;-72
2023/01/11 11:00:13;;;;;;;;;;;;;;;4.80;63.59;94486.69;4157214;28;19930;-72
2023/01/11 11:02:17;;;;;;;;;;;;;;;4.42;63.45;94493.28;4176583;28;20130;-74
2023/01/11 11:04:37;;;;;;;;;;;;;;;4.23;64.81;94491.38;4165863;28;19928;-72
2023/01/11 11:06:38;;;;;;;;;;;;;;;4.26;65.05;94489.38;4174701;28;19929;-73
2023/01/11 11:08:58;;;;;;;;;;;;;;;4.30;65.01;94492.50;4174214;28;19925;-73
2023/01/11 11:11:12;;;;;;;;;;;;;;;4.29;65.24;94488.28;4175928;28;20004;-72
2023/01/11 11:13:17;;;;;;;;;;;;;;;4.24;66.24;94485.25;4147004;28;20262;-75
2023/01/11 11:15:20;;;;;;;;;;;;;;;4.44;65.98;94489.63;4170593;28;19998;-73
2023/01/11 11:17:27;;;;;;;;;;;;;;;4.69;64.58;94487.59;4158833;28;19921;-73
2023/01/11 11:19:31;;;;;;;;;;;;;;;4.93;64.04;94485.50;4158500;28;19925;-73
2023/01/11 11:21:33;;;;;;;;;;;;;;;5.16;63.48;94485.31;4176085;28;19931;-73